createdAt,value
2022-10-21T00:01:06.897Z,62.45
2022-10-21T00:03:37.096Z,63.88
2022-10-21T00:06:06.319Z,62.95
2022-10-21T00:08:34.456Z,63.65
2022-10-21T00:11:04.542Z,62.73
2022-10-21T00:13:34.071Z,61.16
2022-10-21T00:16:04.951Z,61.67
2022-10-21T00:18:34.048Z,64.97
2022-10-21T00:21:06.965Z,63.96
2022-10-21T00:23:35.203Z,63.22
2022-10-21T00:26:03.711Z,65.41
2022-10-21T00:28:32.386Z,65.82
2022-10-21T00:31:00.297Z,65.64
2022-10-21T00:33:29.350Z,66.05
2022-10-21T00:35:59.207Z,66.11
2022-10-21T00:38:28.822Z,66.04
2022-10-21T00:40:56.732Z,66.66
2022-10-21T00:43:25.380Z,68.15
2022-10-21T00:45:56.969Z,68.52
2022-10-21T00:48:31.697Z,68.06
2022-10-21T00:51:04.982Z,67.27
2022-10-21T00:53:37.576Z,69.31
2022-10-21T00:56:15.438Z,66.80
2022-10-21T00:58:47.034Z,66.62
2022-10-21T01:01:19.111Z,66.67
2022-10-21T01:03:49.790Z,65.37
2022-10-21T01:06:20.086Z,64.81
2022-10-21T01:08:49.706Z,64.96
2022-10-21T01:11:20.599Z,64.48
2022-10-21T01:14:04.524Z,67.60
2022-10-21T01:16:44.379Z,65.49
2022-10-21T01:19:41.053Z,65.97
2022-10-21T01:22:23.840Z,66.07
2022-10-21T01:25:19.194Z,64.33
2022-10-21T01:27:56.243Z,64.34
2022-10-21T01:30:38.274Z,64.14
2022-10-21T01:33:50.954Z,62.98
2022-10-21T01:36:29.965Z,62.14
2022-10-21T01:39:08.871Z,62.26
2022-10-21T01:41:42.591Z,62.02
2022-10-21T01:44:22.083Z,62.52
2022-10-21T01:46:57.889Z,63.18
2022-10-21T01:49:32.737Z,63.10
2022-10-21T01:52:01.939Z,62.92
2022-10-21T01:54:34.524Z,62.62
2022-10-21T01:57:04.376Z,64.12
2022-10-21T01:59:33.939Z,63.57
2022-10-21T02:02:08.060Z,62.64
2022-10-21T02:04:39.315Z,64.92
2022-10-21T02:07:07.475Z,62.44
2022-10-21T02:09:35.501Z,64.20
2022-10-21T02:12:06.179Z,63.91
2022-10-21T02:14:37.426Z,62.30
2022-10-21T02:17:08.966Z,62.43
2022-10-21T02:19:36.842Z,62.76
2022-10-21T02:22:09.029Z,62.97
2022-10-21T02:24:41.456Z,61.96
2022-10-21T02:27:09.696Z,61.23
2022-10-21T02:29:41.276Z,62.05
2022-10-21T02:32:24.050Z,62.48
2022-10-21T02:35:03.216Z,61.88
2022-10-21T02:40:13.052Z,60.38
2022-10-21T02:42:55.322Z,61.09
2022-10-21T02:45:24.069Z,61.91
2022-10-21T02:47:53.575Z,61.94
2022-10-21T02:50:21.995Z,61.83
2022-10-21T02:52:50.143Z,63.52
2022-10-21T02:55:18.246Z,61.48
2022-10-21T02:57:46.219Z,60.94
2022-10-21T03:00:15.620Z,62.56
2022-10-21T03:02:43.643Z,64.02
2022-10-21T03:05:14.234Z,64.11
2022-10-21T03:07:42.197Z,64.94
2022-10-21T03:10:10.579Z,64.32
2022-10-21T03:12:38.554Z,65.32
2022-10-21T03:15:07.364Z,64.17
2022-10-21T03:17:35.667Z,64.69
2022-10-21T03:20:04.514Z,64.04
2022-10-21T03:22:34.261Z,63.06
2022-10-21T03:25:02.240Z,63.02
2022-10-21T03:29:59.776Z,63.19
2022-10-21T03:32:27.777Z,62.80
2022-10-21T03:34:55.649Z,64.05
2022-10-21T03:37:23.560Z,63.60
2022-10-21T03:39:53.026Z,63.43
2022-10-21T03:42:20.888Z,62.73
2022-10-21T03:44:48.953Z,63.34
2022-10-21T03:47:19.593Z,62.06
2022-10-21T03:49:48.214Z,62.77
2022-10-21T03:52:16.141Z,63.69
2022-10-21T03:54:44.084Z,63.05
2022-10-21T03:57:13.557Z,61.45
2022-10-21T03:59:41.503Z,61.37
2022-10-21T04:02:09.377Z,61.15
2022-10-21T04:04:37.317Z,61.08
2022-10-21T04:07:05.284Z,59.86
2022-10-21T04:09:33.591Z,59.32
2022-10-21T04:12:01.480Z,59.75
2022-10-21T04:14:30.952Z,61.30
2022-10-21T04:17:06.850Z,60.74
2022-10-21T04:19:34.975Z,59.90
2022-10-21T04:22:03.189Z,61.09
2022-10-21T04:24:31.226Z,61.16
2022-10-21T04:26:59.356Z,60.31
2022-10-21T04:29:27.400Z,63.78
2022-10-21T04:31:56.868Z,64.54
2022-10-21T04:34:24.875Z,63.46
2022-10-21T04:36:52.774Z,64.20
2022-10-21T04:39:20.780Z,65.16
2022-10-21T04:41:50.654Z,63.64
2022-10-21T04:44:18.657Z,64.60
2022-10-21T04:46:46.577Z,64.94
2022-10-21T04:49:15.974Z,64.17
2022-10-21T04:51:43.991Z,64.15
2022-10-21T04:54:13.473Z,63.89
2022-10-21T04:56:41.444Z,66.38
2022-10-21T04:59:09.565Z,67.16
2022-10-21T05:01:38.182Z,65.59
2022-10-21T05:04:06.145Z,66.81
2022-10-21T05:06:35.512Z,67.23
2022-10-21T05:09:03.779Z,66.66
2022-10-21T05:11:31.938Z,67.74
2022-10-21T05:13:59.898Z,67.60
2022-10-21T05:16:27.940Z,68.45
2022-10-21T05:18:55.882Z,69.76
2022-10-21T05:21:23.907Z,68.78
2022-10-21T05:23:53.534Z,67.76
2022-10-21T05:26:21.484Z,68.98
2022-10-21T05:28:49.500Z,69.21
2022-10-21T05:31:17.835Z,69.59
2022-10-21T05:33:47.297Z,69.79
2022-10-21T05:36:15.854Z,70.25
2022-10-21T05:38:45.026Z,69.72
2022-10-21T05:41:14.493Z,69.70
2022-10-21T05:43:42.468Z,70.55
2022-10-21T05:46:10.748Z,70.07
2022-10-21T05:48:39.201Z,69.82
2022-10-21T05:51:08.464Z,70.01
2022-10-21T05:53:36.472Z,70.01
2022-10-21T05:56:06.635Z,72.18
2022-10-21T05:58:36.872Z,70.72
2022-10-21T06:01:05.169Z,71.70
2022-10-21T06:03:35.036Z,72.07
2022-10-21T06:06:05.447Z,72.75
2022-10-21T06:08:39.113Z,74.61
2022-10-21T06:11:09.717Z,74.37
2022-10-21T06:13:39.695Z,76.87
2022-10-21T06:16:09.351Z,74.53
2022-10-21T06:18:38.122Z,75.44
2022-10-21T06:21:06.598Z,74.32
2022-10-21T06:23:38.175Z,73.96
2022-10-21T06:26:08.149Z,73.37
2022-10-21T06:28:40.864Z,72.45
2022-10-21T06:31:10.716Z,72.31
2022-10-21T06:33:38.827Z,72.07
2022-10-21T06:36:07.431Z,72.42
2022-10-21T06:38:37.030Z,72.17
2022-10-21T06:41:10.519Z,72.27
2022-10-21T06:43:42.960Z,72.52
2022-10-21T06:46:12.540Z,73.14
2022-10-21T06:48:40.901Z,72.62
2022-10-21T06:51:10.795Z,72.83
2022-10-21T06:53:39.554Z,74.04
2022-10-21T06:56:10.129Z,74.52
2022-10-21T06:58:39.731Z,74.01
2022-10-21T07:01:21.341Z,72.53
2022-10-21T07:03:58.596Z,72.43
2022-10-21T07:06:26.633Z,72.02
2022-10-21T07:08:58.346Z,71.76
2022-10-21T07:11:26.818Z,71.95
2022-10-21T07:13:54.931Z,70.67
2022-10-21T07:16:26.569Z,70.71
2022-10-21T07:18:55.191Z,70.54
2022-10-21T07:21:25.786Z,71.22
2022-10-21T07:23:56.722Z,71.60
2022-10-21T07:26:28.255Z,71.93
2022-10-21T07:28:58.466Z,71.76
2022-10-21T07:31:29.186Z,71.70
2022-10-21T07:33:57.156Z,73.03
2022-10-21T07:36:27.640Z,71.84
2022-10-21T07:38:58.291Z,70.61
2022-10-21T07:41:28.349Z,70.97
2022-10-21T07:43:56.434Z,71.21
2022-10-21T07:46:24.866Z,71.56
2022-10-21T07:48:54.616Z,72.42
2022-10-21T07:51:28.390Z,70.98
2022-10-21T07:53:58.104Z,70.79
2022-10-21T07:56:28.107Z,68.95
2022-10-21T07:58:56.350Z,67.47
2022-10-21T08:01:24.864Z,67.28
2022-10-21T08:03:55.576Z,66.88
2022-10-21T08:06:25.433Z,67.76
2022-10-21T08:08:53.681Z,68.79
2022-10-21T08:11:22.751Z,67.59
2022-10-21T08:13:50.627Z,66.86
2022-10-21T08:16:18.708Z,65.66
2022-10-21T08:18:46.670Z,66.19
2022-10-21T08:21:16.676Z,65.33
2022-10-21T08:23:44.901Z,63.80
2022-10-21T08:26:14.440Z,63.71
2022-10-21T08:28:42.610Z,64.08
2022-10-21T08:31:12.538Z,63.96
2022-10-21T08:33:40.754Z,63.27
2022-10-21T08:36:10.346Z,64.05
2022-10-21T08:38:39.666Z,64.15
2022-10-21T08:41:19.803Z,63.61
2022-10-21T08:43:47.817Z,63.31
2022-10-21T08:46:20.937Z,64.02
2022-10-21T08:48:54.025Z,63.16
2022-10-21T08:51:28.237Z,63.09
2022-10-21T08:54:02.801Z,61.84
2022-10-21T08:56:31.781Z,61.59
2022-10-21T08:58:59.825Z,61.48
2022-10-21T09:01:33.966Z,60.75
2022-10-21T09:04:12.342Z,61.04
2022-10-21T09:06:50.890Z,60.61
2022-10-21T09:09:27.731Z,60.49
2022-10-21T09:12:04.297Z,59.96
2022-10-21T09:14:56.842Z,60.38
2022-10-21T09:17:43.048Z,60.70
2022-10-21T09:20:22.570Z,61.27
2022-10-21T09:23:02.660Z,60.57
2022-10-21T09:25:36.873Z,60.82
2022-10-21T09:28:13.193Z,60.29
2022-10-21T09:30:42.339Z,60.48
2022-10-21T09:33:17.312Z,59.53
2022-10-21T09:35:49.322Z,59.98
2022-10-21T09:38:34.284Z,59.43
2022-10-21T09:41:06.786Z,58.65
2022-10-21T09:43:34.672Z,57.13
2022-10-21T09:46:02.530Z,58.14
2022-10-21T09:48:53.970Z,58.36
2022-10-21T09:51:30.980Z,58.17
2022-10-21T09:54:03.752Z,56.76
2022-10-21T09:56:40.233Z,57.57
2022-10-21T09:59:10.055Z,57.63
2022-10-21T10:01:39.679Z,55.57
2022-10-21T10:04:15.119Z,55.32
2022-10-21T10:06:45.291Z,55.64
2022-10-21T10:09:28.016Z,56.15
2022-10-21T10:12:01.700Z,57.19
2022-10-21T10:14:32.576Z,56.24
2022-10-21T10:17:21.779Z,56.10
2022-10-21T10:20:14.185Z,55.39
2022-10-21T10:22:44.337Z,54.79
2022-10-21T10:25:22.855Z,56.48
2022-10-21T10:27:55.078Z,55.85
2022-10-21T10:30:24.609Z,55.39
2022-10-21T10:32:54.807Z,54.93
2022-10-21T10:35:31.617Z,55.90
2022-10-21T10:38:02.548Z,55.44
2022-10-21T10:40:34.207Z,54.55
2022-10-21T10:43:08.114Z,57.99
2022-10-21T10:45:36.428Z,60.47
2022-10-21T10:48:06.900Z,61.69
2022-10-21T10:50:48.867Z,60.62
2022-10-21T10:53:38.417Z,59.35
2022-10-21T10:56:19.745Z,59.42
2022-10-21T10:58:55.130Z,59.42
2022-10-21T11:01:28.157Z,59.13
2022-10-21T11:04:02.221Z,59.34
2022-10-21T11:06:36.980Z,58.14
2022-10-21T11:09:08.837Z,58.84
2022-10-21T11:11:40.085Z,58.70
2022-10-21T11:14:17.598Z,61.30
2022-10-21T11:17:00.859Z,59.57
2022-10-21T11:19:35.428Z,60.91
2022-10-21T11:22:24.659Z,60.57
2022-10-21T11:24:57.323Z,61.42
2022-10-21T11:27:57.870Z,60.97
2022-10-21T11:30:34.705Z,60.32
2022-10-21T11:33:20.229Z,59.71
2022-10-21T11:35:59.571Z,62.97
2022-10-21T11:38:40.645Z,61.19
2022-10-21T11:41:22.952Z,60.07
2022-10-21T11:44:04.357Z,61.25
2022-10-21T11:46:44.964Z,61.29
2022-10-21T11:49:26.819Z,58.97
2022-10-21T11:52:02.050Z,59.52
2022-10-21T11:55:10.380Z,59.48
2022-10-21T11:57:47.942Z,58.73
2022-10-21T12:00:20.739Z,59.78
2022-10-21T12:03:19.777Z,58.98
2022-10-21T12:05:55.277Z,59.18
2022-10-21T12:08:28.609Z,59.06
2022-10-21T12:11:02.008Z,58.84
2022-10-21T12:13:36.852Z,59.19
2022-10-21T12:16:09.803Z,58.66
2022-10-21T12:18:52.481Z,59.98
2022-10-21T12:21:24.480Z,59.29
2022-10-21T12:23:57.867Z,59.63
2022-10-21T12:26:29.656Z,59.22
2022-10-21T12:29:02.610Z,59.83
2022-10-21T12:31:40.881Z,60.17
2022-10-21T12:34:12.555Z,59.52
2022-10-21T12:36:44.283Z,58.99
2022-10-21T12:39:18.077Z,59.61
2022-10-21T12:41:48.756Z,60.60
2022-10-21T12:44:35.020Z,60.30
2022-10-21T12:47:24.163Z,60.59
2022-10-21T12:50:19.966Z,60.86
2022-10-21T12:53:03.703Z,62.13
2022-10-21T12:55:39.265Z,60.00
2022-10-21T12:58:19.307Z,59.29
2022-10-21T13:00:56.224Z,59.35
2022-10-21T13:03:55.356Z,61.66
2022-10-21T13:06:53.395Z,60.80
2022-10-21T13:09:44.629Z,60.64
2022-10-21T13:12:31.628Z,60.18
2022-10-21T13:15:02.591Z,60.02
2022-10-21T13:17:53.174Z,61.28
2022-10-21T13:20:47.198Z,61.61
2022-10-21T13:23:44.442Z,60.71
2022-10-21T13:26:25.539Z,63.15
2022-10-21T13:29:02.949Z,62.97
2022-10-21T13:31:31.319Z,63.73
2022-10-21T13:33:59.752Z,63.04
2022-10-21T13:36:39.162Z,62.62
2022-10-21T13:39:23.137Z,63.25
2022-10-21T13:41:59.850Z,62.83
2022-10-21T13:44:31.803Z,63.34
2022-10-21T13:47:19.315Z,63.97
2022-10-21T13:49:52.453Z,64.62
2022-10-21T13:52:20.520Z,65.21
2022-10-21T13:55:00.744Z,65.41
2022-10-21T13:57:33.846Z,66.83
2022-10-21T14:00:04.029Z,65.89
2022-10-21T14:02:33.049Z,66.64
2022-10-21T14:05:02.820Z,65.78
2022-10-21T14:07:31.087Z,66.59
2022-10-21T14:10:01.836Z,69.17
2022-10-21T14:12:33.875Z,67.03
2022-10-21T14:15:06.554Z,67.10
2022-10-21T14:17:36.610Z,68.78
2022-10-21T14:20:09.238Z,67.89
2022-10-21T14:22:38.906Z,67.81
2022-10-21T14:25:16.013Z,69.09
2022-10-21T14:27:47.215Z,68.94
2022-10-21T14:30:20.011Z,68.86
2022-10-21T14:32:49.329Z,70.35
2022-10-21T14:35:28.273Z,70.33
2022-10-21T14:38:04.895Z,69.59
2022-10-21T14:40:37.995Z,70.27
2022-10-21T14:43:17.652Z,69.42
2022-10-21T14:45:48.122Z,69.80
2022-10-21T14:48:22.303Z,69.75
2022-10-21T14:50:55.185Z,68.43
2022-10-21T14:53:25.480Z,68.76
2022-10-21T14:55:58.290Z,68.67
2022-10-21T14:58:32.130Z,68.43
2022-10-21T15:01:02.202Z,68.51
2022-10-21T15:03:44.773Z,67.87
2022-10-21T15:06:15.442Z,68.14
2022-10-21T15:08:45.447Z,68.83
2022-10-21T15:11:31.378Z,68.62
2022-10-21T15:14:20.749Z,67.88
2022-10-21T15:16:52.799Z,67.98
2022-10-21T15:19:24.308Z,66.93
2022-10-21T15:21:56.361Z,67.30
2022-10-21T15:24:31.598Z,66.78
2022-10-21T15:27:02.758Z,66.92
2022-10-21T15:29:36.725Z,67.70
2022-10-21T15:32:06.382Z,67.85
2022-10-21T15:34:34.420Z,66.71
2022-10-21T15:37:02.511Z,66.95
2022-10-21T15:39:30.724Z,67.19
2022-10-21T15:41:59.051Z,66.86
2022-10-21T15:44:30.992Z,67.16
2022-10-21T15:47:01.163Z,66.50
2022-10-21T15:49:34.941Z,66.84
2022-10-21T15:52:04.508Z,67.36
2022-10-21T15:54:34.546Z,66.77
2022-10-21T15:57:03.638Z,66.75
2022-10-21T15:59:34.985Z,65.34
2022-10-21T16:04:31.438Z,67.22
2022-10-21T16:07:03.269Z,67.10
2022-10-21T16:09:32.749Z,66.78
2022-10-21T16:12:03.139Z,66.54
2022-10-21T16:14:32.651Z,66.60
2022-10-21T16:17:00.948Z,66.00
2022-10-21T16:19:29.873Z,65.93
2022-10-21T16:21:58.291Z,66.11
2022-10-21T16:24:26.380Z,66.01
2022-10-21T16:26:54.654Z,65.96
2022-10-21T16:29:24.778Z,65.79
2022-10-21T16:31:55.314Z,65.99
2022-10-21T16:34:23.799Z,65.77
2022-10-21T16:36:51.844Z,66.49
2022-10-21T16:39:22.084Z,65.97
2022-10-21T16:41:50.252Z,67.09
2022-10-21T16:44:18.744Z,66.24
2022-10-21T16:46:51.937Z,66.84
2022-10-21T16:49:24.031Z,66.56
2022-10-21T16:51:53.531Z,65.46
2022-10-21T16:54:23.135Z,64.64
2022-10-21T16:57:08.419Z,64.77
2022-10-21T16:59:37.462Z,65.91
2022-10-21T17:02:15.544Z,65.63
2022-10-21T17:04:45.779Z,65.84
2022-10-21T17:07:14.275Z,65.13
2022-10-21T17:09:42.479Z,65.13
2022-10-21T17:12:12.699Z,65.27
2022-10-21T17:14:41.206Z,66.03
2022-10-21T17:17:09.294Z,66.85
2022-10-21T17:19:37.361Z,68.98
2022-10-21T17:22:07.436Z,68.27
2022-10-21T17:24:35.400Z,67.33
2022-10-21T17:27:03.797Z,67.68
2022-10-21T17:29:31.873Z,66.77
2022-10-21T17:31:59.726Z,65.85
2022-10-21T17:34:30.267Z,65.74
2022-10-21T17:37:01.303Z,64.93
2022-10-21T17:39:33.014Z,65.09
2022-10-21T17:42:01.001Z,64.92
2022-10-21T17:44:28.959Z,64.74
2022-10-21T17:46:57.175Z,64.40
2022-10-21T17:49:28.609Z,63.86
2022-10-21T17:51:56.672Z,65.14
2022-10-21T17:54:28.488Z,64.25
2022-10-21T17:56:59.442Z,65.40
2022-10-21T17:59:27.465Z,65.29
2022-10-21T18:01:55.440Z,65.05
2022-10-21T18:04:23.645Z,64.27
2022-10-21T18:06:54.699Z,65.25
2022-10-21T18:09:24.041Z,65.46
2022-10-21T18:11:52.793Z,65.32
2022-10-21T18:14:22.621Z,66.20
2022-10-21T18:16:50.497Z,65.88
2022-10-21T18:19:18.767Z,65.96
2022-10-21T18:21:46.658Z,65.95
2022-10-21T18:24:14.664Z,65.48
2022-10-21T18:26:42.578Z,64.58
2022-10-21T18:29:10.672Z,65.11
2022-10-21T18:31:40.849Z,65.17
2022-10-21T18:34:09.306Z,64.30
2022-10-21T18:36:37.633Z,64.50
2022-10-21T18:39:06.018Z,63.72
2022-10-21T18:41:34.255Z,63.05
2022-10-21T18:44:08.059Z,63.63
2022-10-21T18:46:37.520Z,63.89
2022-10-21T18:49:09.178Z,63.11
2022-10-21T18:51:37.255Z,63.60
2022-10-21T18:54:05.630Z,64.48
2022-10-21T18:56:33.760Z,64.26
2022-10-21T18:59:01.708Z,66.31
2022-10-21T19:01:29.825Z,66.78
2022-10-21T19:03:57.813Z,66.48
2022-10-21T19:06:37.062Z,65.52
2022-10-21T19:09:08.391Z,64.99
2022-10-21T19:11:36.453Z,64.97
2022-10-21T19:14:07.242Z,65.48
2022-10-21T19:16:37.949Z,64.91
2022-10-21T19:19:05.912Z,65.31
2022-10-21T19:21:35.332Z,64.68
2022-10-21T19:24:04.008Z,64.26
2022-10-21T19:26:33.926Z,64.41
2022-10-21T19:29:03.080Z,64.02
2022-10-21T19:31:34.669Z,64.08
2022-10-21T19:34:06.729Z,64.14
2022-10-21T19:36:36.049Z,63.69
2022-10-21T19:39:04.159Z,63.82
2022-10-21T19:41:32.306Z,64.39
2022-10-21T19:44:00.240Z,64.93
2022-10-21T19:46:30.940Z,64.30
2022-10-21T19:49:01.307Z,64.11
2022-10-21T19:51:29.600Z,63.35
2022-10-21T19:53:59.273Z,63.24
2022-10-21T19:56:31.962Z,63.13
2022-10-21T19:59:02.636Z,63.04
2022-10-21T20:04:01.260Z,62.55
2022-10-21T20:06:32.007Z,62.17
2022-10-21T20:09:02.930Z,61.81
2022-10-21T20:11:31.534Z,62.47
2022-10-21T20:14:00.216Z,62.55
2022-10-21T20:16:30.364Z,62.54
2022-10-21T20:19:00.484Z,62.24
2022-10-21T20:21:29.101Z,62.47
2022-10-21T20:23:58.003Z,63.14
2022-10-21T20:26:28.727Z,63.32
2022-10-21T20:28:57.477Z,63.34
2022-10-21T20:31:25.496Z,63.24
2022-10-21T20:33:53.414Z,62.81
2022-10-21T20:36:23.794Z,62.66
2022-10-21T20:38:53.999Z,62.27
2022-10-21T20:41:24.085Z,62.55
2022-10-21T20:43:54.396Z,62.36
2022-10-21T20:46:24.229Z,62.69
2022-10-21T20:48:54.117Z,62.56
2022-10-21T20:51:24.962Z,63.20
2022-10-21T20:53:55.196Z,63.54
2022-10-21T20:56:23.707Z,63.15
2022-10-21T20:58:53.173Z,64.10
2022-10-21T21:01:25.346Z,63.12
2022-10-21T21:03:55.149Z,63.53
2022-10-21T21:06:23.082Z,63.08
2022-10-21T21:09:08.561Z,63.72
2022-10-21T21:11:39.444Z,63.29
2022-10-21T21:14:08.737Z,62.98
2022-10-21T21:16:36.625Z,63.41
2022-10-21T21:19:06.799Z,63.70
2022-10-21T21:21:36.469Z,63.59
2022-10-21T21:24:05.031Z,62.59
2022-10-21T21:26:34.673Z,62.82
2022-10-21T21:29:03.118Z,62.73
2022-10-21T21:31:32.713Z,62.24
2022-10-21T21:34:04.218Z,62.48
2022-10-21T21:36:32.158Z,61.98
2022-10-21T21:39:00.158Z,62.08
2022-10-21T21:41:28.184Z,60.88
2022-10-21T21:43:56.870Z,61.98
2022-10-21T21:46:25.953Z,62.22
2022-10-21T21:48:59.465Z,61.31
2022-10-21T21:51:31.317Z,61.69
2022-10-21T21:54:00.290Z,64.36
2022-10-21T21:56:28.920Z,64.17
2022-10-21T21:58:58.059Z,64.49
2022-10-21T22:01:28.935Z,63.87
2022-10-21T22:03:59.045Z,63.58
2022-10-21T22:06:29.101Z,63.42
2022-10-21T22:08:57.445Z,62.83
2022-10-21T22:11:28.097Z,62.45
2022-10-21T22:13:56.348Z,62.07
2022-10-21T22:16:27.435Z,61.48
2022-10-21T22:19:01.730Z,61.39
2022-10-21T22:21:33.321Z,60.71
2022-10-21T22:24:01.264Z,61.01
2022-10-21T22:26:29.975Z,62.52
2022-10-21T22:28:58.219Z,62.13
2022-10-21T22:31:29.453Z,62.23
2022-10-21T22:34:00.383Z,63.04
2022-10-21T22:36:28.649Z,63.04
2022-10-21T22:38:58.207Z,62.92
2022-10-21T22:41:26.248Z,62.63
2022-10-21T22:43:54.159Z,63.28
2022-10-21T22:46:33.545Z,62.51
2022-10-21T22:49:03.322Z,62.86
2022-10-21T22:51:31.263Z,62.58
2022-10-21T22:54:01.276Z,62.30
2022-10-21T22:56:29.485Z,61.70
2022-10-21T22:58:57.899Z,61.35
2022-10-21T23:01:29.056Z,61.30
2022-10-21T23:03:58.032Z,61.50
2022-10-21T23:06:25.940Z,61.16
2022-10-21T23:08:53.952Z,61.16
2022-10-21T23:11:23.310Z,60.93
2022-10-21T23:14:02.441Z,61.24
2022-10-21T23:16:31.990Z,61.86
2022-10-21T23:19:00.131Z,61.69
2022-10-21T23:21:28.778Z,61.33
2022-10-21T23:23:56.821Z,61.82
2022-10-21T23:26:26.293Z,61.86
2022-10-21T23:28:54.268Z,61.62
2022-10-21T23:31:22.602Z,61.86
2022-10-21T23:33:50.638Z,61.85
2022-10-21T23:36:18.665Z,61.68
2022-10-21T23:38:46.582Z,62.54
2022-10-21T23:41:14.749Z,62.03
2022-10-21T23:43:44.087Z,62.11
2022-10-21T23:46:11.982Z,62.12
2022-10-21T23:48:39.930Z,62.13
2022-10-21T23:51:07.942Z,62.56
2022-10-21T23:53:35.892Z,62.73
2022-10-21T23:56:03.814Z,62.60
2022-10-21T23:58:31.827Z,62.60
